sensor_id;sensor_type;location;lat;lon;timestamp;temperature;humidity
66708;DHT22;53622;0.000;0.000;2023-11-22T00:01:36;21.30;54.50
66708;DHT22;53622;0.000;0.000;2023-11-22T00:04:05;21.30;54.40
66708;DHT22;53622;0.000;0.000;2023-11-22T00:06:34;21.20;54.40
66708;DHT22;53622;0.000;0.000;2023-11-22T00:09:02;21.20;54.40
66708;DHT22;53622;0.000;0.000;2023-11-22T00:11:32;21.30;54.50
66708;DHT22;53622;0.000;0.000;2023-11-22T00:14:02;21.30;54.40
66708;DHT22;53622;0.000;0.000;2023-11-22T00:16:31;21.30;54.40
66708;DHT22;53622;0.000;0.000;2023-11-22T00:18:59;21.20;54.40
66708;DHT22;53622;0.000;0.000;2023-11-22T00:21:28;21.20;54.30
66708;DHT22;53622;0.000;0.000;2023-11-22T00:23:57;21.20;54.30
66708;DHT22;53622;0.000;0.000;2023-11-22T00:26:25;21.20;54.30
66708;DHT22;53622;0.000;0.000;2023-11-22T00:28:57;21.20;54.30
66708;DHT22;53622;0.000;0.000;2023-11-22T00:31:29;21.20;54.30
66708;DHT22;53622;0.000;0.000;2023-11-22T00:33:58;21.20;54.20
66708;DHT22;53622;0.000;0.000;2023-11-22T00:36:26;21.20;54.30
66708;DHT22;53622;0.000;0.000;2023-11-22T00:38:56;21.20;54.30
66708;DHT22;53622;0.000;0.000;2023-11-22T00:41:30;21.10;54.30
66708;DHT22;53622;0.000;0.000;2023-11-22T00:43:59;21.10;54.20
66708;DHT22;53622;0.000;0.000;2023-11-22T00:46:29;21.10;54.20
66708;DHT22;53622;0.000;0.000;2023-11-22T00:48:58;21.10;54.30
66708;DHT22;53622;0.000;0.000;2023-11-22T00:51:26;21.10;54.20
66708;DHT22;53622;0.000;0.000;2023-11-22T00:53:55;21.10;54.20
66708;DHT22;53622;0.000;0.000;2023-11-22T00:56:24;21.10;54.20
66708;DHT22;53622;0.000;0.000;2023-11-22T00:58:53;21.10;54.20
66708;DHT22;53622;0.000;0.000;2023-11-22T01:01:22;21.10;54.20
66708;DHT22;53622;0.000;0.000;2023-11-22T01:03:52;21.10;54.20
66708;DHT22;53622;0.000;0.000;2023-11-22T01:06:21;21.10;54.20
66708;DHT22;53622;0.000;0.000;2023-11-22T01:08:50;21.10;54.10
66708;DHT22;53622;0.000;0.000;2023-11-22T01:11:19;21.10;54.10
66708;DHT22;53622;0.000;0.000;2023-11-22T01:13:48;21.00;54.00
66708;DHT22;53622;0.000;0.000;2023-11-22T01:16:17;21.10;54.00
66708;DHT22;53622;0.000;0.000;2023-11-22T01:18:46;21.00;54.00
66708;DHT22;53622;0.000;0.000;2023-11-22T01:21:16;21.00;54.10
66708;DHT22;53622;0.000;0.000;2023-11-22T01:23:45;21.00;54.00
66708;DHT22;53622;0.000;0.000;2023-11-22T01:26:14;21.00;54.00
66708;DHT22;53622;0.000;0.000;2023-11-22T01:28:44;21.00;54.00
66708;DHT22;53622;0.000;0.000;2023-11-22T01:31:13;21.00;54.00
66708;DHT22;53622;0.000;0.000;2023-11-22T01:33:42;21.00;54.00
66708;DHT22;53622;0.000;0.000;2023-11-22T01:36:10;21.00;54.00
66708;DHT22;53622;0.000;0.000;2023-11-22T01:38:41;21.00;54.00
66708;DHT22;53622;0.000;0.000;2023-11-22T01:41:11;21.00;54.00
66708;DHT22;53622;0.000;0.000;2023-11-22T01:43:41;21.00;53.90
66708;DHT22;53622;0.000;0.000;2023-11-22T01:46:13;21.00;54.00
66708;DHT22;53622;0.000;0.000;2023-11-22T01:48:44;21.00;53.90
66708;DHT22;53622;0.000;0.000;2023-11-22T01:51:13;21.00;53.90
66708;DHT22;53622;0.000;0.000;2023-11-22T01:53:43;20.90;53.80
66708;DHT22;53622;0.000;0.000;2023-11-22T01:56:11;20.90;53.80
66708;DHT22;53622;0.000;0.000;2023-11-22T01:58:40;21.00;53.80
66708;DHT22;53622;0.000;0.000;2023-11-22T02:01:09;21.00;54.40
66708;DHT22;53622;0.000;0.000;2023-11-22T02:03:39;21.00;53.80
66708;DHT22;53622;0.000;0.000;2023-11-22T02:06:09;20.90;53.80
66708;DHT22;53622;0.000;0.000;2023-11-22T02:08:38;21.00;53.80
66708;DHT22;53622;0.000;0.000;2023-11-22T02:11:08;20.90;53.80
66708;DHT22;53622;0.000;0.000;2023-11-22T02:13:37;20.90;53.80
66708;DHT22;53622;0.000;0.000;2023-11-22T02:16:06;20.90;53.70
66708;DHT22;53622;0.000;0.000;2023-11-22T02:18:35;20.90;53.80
66708;DHT22;53622;0.000;0.000;2023-11-22T02:21:06;20.90;53.70
66708;DHT22;53622;0.000;0.000;2023-11-22T02:23:36;20.90;53.70
66708;DHT22;53622;0.000;0.000;2023-11-22T02:26:04;20.90;53.70
66708;DHT22;53622;0.000;0.000;2023-11-22T02:28:33;20.90;53.70
66708;DHT22;53622;0.000;0.000;2023-11-22T02:31:02;20.90;53.80
66708;DHT22;53622;0.000;0.000;2023-11-22T02:33:31;20.90;53.70
66708;DHT22;53622;0.000;0.000;2023-11-22T02:35:59;20.90;54.20
66708;DHT22;53622;0.000;0.000;2023-11-22T02:38:29;20.90;53.60
66708;DHT22;53622;0.000;0.000;2023-11-22T02:40:59;20.90;53.60
66708;DHT22;53622;0.000;0.000;2023-11-22T02:43:28;20.90;53.70
66708;DHT22;53622;0.000;0.000;2023-11-22T02:45:57;20.90;53.60
66708;DHT22;53622;0.000;0.000;2023-11-22T02:48:26;20.90;53.70
66708;DHT22;53622;0.000;0.000;2023-11-22T02:50:55;20.90;53.60
66708;DHT22;53622;0.000;0.000;2023-11-22T02:53:24;20.80;53.60
66708;DHT22;53622;0.000;0.000;2023-11-22T02:55:53;20.90;53.60
66708;DHT22;53622;0.000;0.000;2023-11-22T02:58:24;20.90;53.60
66708;DHT22;53622;0.000;0.000;2023-11-22T03:00:53;20.90;53.70
66708;DHT22;53622;0.000;0.000;2023-11-22T03:03:24;20.90;53.70
66708;DHT22;53622;0.000;0.000;2023-11-22T03:05:53;20.90;53.70
66708;DHT22;53622;0.000;0.000;2023-11-22T03:08:22;20.80;53.60
66708;DHT22;53622;0.000;0.000;2023-11-22T03:10:51;20.80;53.60
66708;DHT22;53622;0.000;0.000;2023-11-22T03:13:19;20.80;53.60
66708;DHT22;53622;0.000;0.000;2023-11-22T03:15:50;20.80;53.60
66708;DHT22;53622;0.000;0.000;2023-11-22T03:18:19;20.80;53.60
66708;DHT22;53622;0.000;0.000;2023-11-22T03:20:49;20.80;53.60
66708;DHT22;53622;0.000;0.000;2023-11-22T03:23:22;20.80;53.60
66708;DHT22;53622;0.000;0.000;2023-11-22T03:25:50;20.80;53.70
66708;DHT22;53622;0.000;0.000;2023-11-22T03:28:19;20.80;53.70
66708;DHT22;53622;0.000;0.000;2023-11-22T03:30:51;20.80;53.60
66708;DHT22;53622;0.000;0.000;2023-11-22T03:33:19;20.80;53.60
66708;DHT22;53622;0.000;0.000;2023-11-22T03:35:49;20.80;53.60
66708;DHT22;53622;0.000;0.000;2023-11-22T03:38:18;20.80;53.70
66708;DHT22;53622;0.000;0.000;2023-11-22T03:40:46;20.80;53.60
66708;DHT22;53622;0.000;0.000;2023-11-22T03:43:16;20.80;53.60
66708;DHT22;53622;0.000;0.000;2023-11-22T03:45:44;20.80;53.60
66708;DHT22;53622;0.000;0.000;2023-11-22T03:48:15;20.80;53.60
66708;DHT22;53622;0.000;0.000;2023-11-22T03:50:44;20.80;53.60
66708;DHT22;53622;0.000;0.000;2023-11-22T03:53:12;20.80;53.60
66708;DHT22;53622;0.000;0.000;2023-11-22T03:55:41;20.80;53.60
66708;DHT22;53622;0.000;0.000;2023-11-22T03:58:10;20.70;53.70
66708;DHT22;53622;0.000;0.000;2023-11-22T04:00:38;20.80;53.80
66708;DHT22;53622;0.000;0.000;2023-11-22T04:03:07;20.70;53.70
66708;DHT22;53622;0.000;0.000;2023-11-22T04:05:37;20.70;53.70
66708;DHT22;53622;0.000;0.000;2023-11-22T04:08:06;20.80;53.70
66708;DHT22;53622;0.000;0.000;2023-11-22T04:10:36;20.70;53.70
66708;DHT22;53622;0.000;0.000;2023-11-22T04:13:04;20.70;53.70
66708;DHT22;53622;0.000;0.000;2023-11-22T04:15:33;20.70;54.20
66708;DHT22;53622;0.000;0.000;2023-11-22T04:18:02;20.70;53.70
66708;DHT22;53622;0.000;0.000;2023-11-22T04:20:32;20.70;53.70
66708;DHT22;53622;0.000;0.000;2023-11-22T04:23:02;20.70;53.70
66708;DHT22;53622;0.000;0.000;2023-11-22T04:25:30;20.70;53.70
66708;DHT22;53622;0.000;0.000;2023-11-22T04:28:01;20.70;53.70
66708;DHT22;53622;0.000;0.000;2023-11-22T04:30:30;20.70;53.70
66708;DHT22;53622;0.000;0.000;2023-11-22T04:32:58;20.70;53.70
66708;DHT22;53622;0.000;0.000;2023-11-22T04:35:27;20.70;53.70
66708;DHT22;53622;0.000;0.000;2023-11-22T04:37:56;20.70;53.70
66708;DHT22;53622;0.000;0.000;2023-11-22T04:40:27;20.70;53.70
66708;DHT22;53622;0.000;0.000;2023-11-22T04:42:55;20.70;53.70
66708;DHT22;53622;0.000;0.000;2023-11-22T04:45:24;20.70;53.70
66708;DHT22;53622;0.000;0.000;2023-11-22T04:47:53;20.70;53.70
66708;DHT22;53622;0.000;0.000;2023-11-22T04:50:24;20.70;53.70
66708;DHT22;53622;0.000;0.000;2023-11-22T04:52:53;20.70;53.70
66708;DHT22;53622;0.000;0.000;2023-11-22T04:55:22;20.70;53.70
66708;DHT22;53622;0.000;0.000;2023-11-22T04:57:52;20.70;53.60
66708;DHT22;53622;0.000;0.000;2023-11-22T05:00:21;20.70;53.70
66708;DHT22;53622;0.000;0.000;2023-11-22T05:02:50;20.70;53.70
66708;DHT22;53622;0.000;0.000;2023-11-22T05:05:19;20.70;53.60
66708;DHT22;53622;0.000;0.000;2023-11-22T05:07:48;20.70;53.70
66708;DHT22;53622;0.000;0.000;2023-11-22T05:10:16;20.60;53.70
66708;DHT22;53622;0.000;0.000;2023-11-22T05:12:45;20.60;53.60
66708;DHT22;53622;0.000;0.000;2023-11-22T05:15:15;20.60;53.60
66708;DHT22;53622;0.000;0.000;2023-11-22T05:17:44;20.60;53.60
66708;DHT22;53622;0.000;0.000;2023-11-22T05:20:13;20.60;53.60
66708;DHT22;53622;0.000;0.000;2023-11-22T05:22:42;20.60;53.60
66708;DHT22;53622;0.000;0.000;2023-11-22T05:25:10;20.60;53.70
66708;DHT22;53622;0.000;0.000;2023-11-22T05:27:39;20.60;53.70
66708;DHT22;53622;0.000;0.000;2023-11-22T05:30:08;20.60;53.60
66708;DHT22;53622;0.000;0.000;2023-11-22T05:32:40;20.60;53.60
66708;DHT22;53622;0.000;0.000;2023-11-22T05:35:09;20.60;53.60
66708;DHT22;53622;0.000;0.000;2023-11-22T05:37:38;20.60;53.70
66708;DHT22;53622;0.000;0.000;2023-11-22T05:40:08;20.60;53.70
66708;DHT22;53622;0.000;0.000;2023-11-22T05:42:38;20.60;53.70
66708;DHT22;53622;0.000;0.000;2023-11-22T05:45:08;20.60;54.00
66708;DHT22;53622;0.000;0.000;2023-11-22T05:47:37;20.60;53.80
66708;DHT22;53622;0.000;0.000;2023-11-22T05:50:08;20.60;53.70
66708;DHT22;53622;0.000;0.000;2023-11-22T05:52:37;20.60;53.70
66708;DHT22;53622;0.000;0.000;2023-11-22T05:55:07;20.60;53.80
66708;DHT22;53622;0.000;0.000;2023-11-22T05:57:36;20.60;53.90
66708;DHT22;53622;0.000;0.000;2023-11-22T06:00:06;20.60;54.00
66708;DHT22;53622;0.000;0.000;2023-11-22T06:02:35;20.60;54.30
66708;DHT22;53622;0.000;0.000;2023-11-22T06:05:05;20.60;54.40
66708;DHT22;53622;0.000;0.000;2023-11-22T06:07:35;20.60;54.60
66708;DHT22;53622;0.000;0.000;2023-11-22T06:10:05;20.70;54.70
66708;DHT22;53622;0.000;0.000;2023-11-22T06:12:33;20.60;54.70
66708;DHT22;53622;0.000;0.000;2023-11-22T06:15:03;20.70;54.90
66708;DHT22;53622;0.000;0.000;2023-11-22T06:17:32;20.70;55.00
66708;DHT22;53622;0.000;0.000;2023-11-22T06:20:00;20.70;55.00
66708;DHT22;53622;0.000;0.000;2023-11-22T06:22:30;20.60;55.00
66708;DHT22;53622;0.000;0.000;2023-11-22T06:25:01;20.60;55.00
66708;DHT22;53622;0.000;0.000;2023-11-22T06:27:29;20.60;55.20
66708;DHT22;53622;0.000;0.000;2023-11-22T06:30:00;20.60;55.10
66708;DHT22;53622;0.000;0.000;2023-11-22T06:32:29;20.60;55.00
66708;DHT22;53622;0.000;0.000;2023-11-22T06:34:57;20.60;54.70
66708;DHT22;53622;0.000;0.000;2023-11-22T06:37:26;20.60;54.70
66708;DHT22;53622;0.000;0.000;2023-11-22T06:39:55;20.60;54.70
66708;DHT22;53622;0.000;0.000;2023-11-22T06:42:26;20.60;54.80
66708;DHT22;53622;0.000;0.000;2023-11-22T06:44:55;20.60;54.60
66708;DHT22;53622;0.000;0.000;2023-11-22T06:47:27;20.60;54.90
66708;DHT22;53622;0.000;0.000;2023-11-22T06:49:56;20.60;54.90
66708;DHT22;53622;0.000;0.000;2023-11-22T06:52:25;20.60;54.70
66708;DHT22;53622;0.000;0.000;2023-11-22T06:54:54;20.60;54.20
66708;DHT22;53622;0.000;0.000;2023-11-22T06:57:23;20.60;54.30
66708;DHT22;53622;0.000;0.000;2023-11-22T06:59:57;20.60;54.30
66708;DHT22;53622;0.000;0.000;2023-11-22T07:02:26;20.60;54.60
66708;DHT22;53622;0.000;0.000;2023-11-22T07:04:55;20.60;54.70
66708;DHT22;53622;0.000;0.000;2023-11-22T07:07:26;20.60;54.90
66708;DHT22;53622;0.000;0.000;2023-11-22T07:09:55;20.50;54.80
66708;DHT22;53622;0.000;0.000;2023-11-22T07:12:27;20.60;54.90
66708;DHT22;53622;0.000;0.000;2023-11-22T07:14:57;20.50;54.70
66708;DHT22;53622;0.000;0.000;2023-11-22T07:17:26;20.50;54.60
66708;DHT22;53622;0.000;0.000;2023-11-22T07:19:56;20.50;54.70
66708;DHT22;53622;0.000;0.000;2023-11-22T07:22:25;20.50;55.30
66708;DHT22;53622;0.000;0.000;2023-11-22T07:24:54;20.50;54.70
66708;DHT22;53622;0.000;0.000;2023-11-22T07:27:27;20.50;54.60
66708;DHT22;53622;0.000;0.000;2023-11-22T07:29:57;20.50;54.60
66708;DHT22;53622;0.000;0.000;2023-11-22T07:32:26;20.50;54.70
66708;DHT22;53622;0.000;0.000;2023-11-22T07:34:55;20.50;54.70
66708;DHT22;53622;0.000;0.000;2023-11-22T07:37:23;20.50;54.70
66708;DHT22;53622;0.000;0.000;2023-11-22T07:39:52;20.50;54.60
66708;DHT22;53622;0.000;0.000;2023-11-22T07:42:21;20.50;54.60
66708;DHT22;53622;0.000;0.000;2023-11-22T07:44:50;20.50;54.40
66708;DHT22;53622;0.000;0.000;2023-11-22T07:47:25;20.40;54.30
66708;DHT22;53622;0.000;0.000;2023-11-22T07:49:54;20.40;54.60
66708;DHT22;53622;0.000;0.000;2023-11-22T07:52:23;20.40;55.20
66708;DHT22;53622;0.000;0.000;2023-11-22T07:54:57;20.40;54.50
66708;DHT22;53622;0.000;0.000;2023-11-22T07:57:25;20.50;54.60
66708;DHT22;53622;0.000;0.000;2023-11-22T07:59:54;20.40;54.70
66708;DHT22;53622;0.000;0.000;2023-11-22T08:02:24;20.40;54.60
66708;DHT22;53622;0.000;0.000;2023-11-22T08:04:53;20.50;54.50
66708;DHT22;53622;0.000;0.000;2023-11-22T08:07:22;20.50;54.30
66708;DHT22;53622;0.000;0.000;2023-11-22T08:09:51;20.40;54.20
66708;DHT22;53622;0.000;0.000;2023-11-22T08:12:20;20.40;54.10
66708;DHT22;53622;0.000;0.000;2023-11-22T08:14:50;20.40;54.40
66708;DHT22;53622;0.000;0.000;2023-11-22T08:17:24;20.40;54.50
66708;DHT22;53622;0.000;0.000;2023-11-22T08:19:53;20.40;54.20
66708;DHT22;53622;0.000;0.000;2023-11-22T08:22:23;20.40;54.40
66708;DHT22;53622;0.000;0.000;2023-11-22T08:24:54;20.40;54.50
66708;DHT22;53622;0.000;0.000;2023-11-22T08:27:24;20.40;54.50
66708;DHT22;53622;0.000;0.000;2023-11-22T08:29:53;20.40;54.50
66708;DHT22;53622;0.000;0.000;2023-11-22T08:32:22;20.40;54.70
66708;DHT22;53622;0.000;0.000;2023-11-22T08:34:56;20.40;54.50
66708;DHT22;53622;0.000;0.000;2023-11-22T08:37:25;20.50;54.30
66708;DHT22;53622;0.000;0.000;2023-11-22T08:39:53;20.50;54.60
66708;DHT22;53622;0.000;0.000;2023-11-22T08:42:22;20.60;55.30
66708;DHT22;53622;0.000;0.000;2023-11-22T08:44:51;20.60;54.70
66708;DHT22;53622;0.000;0.000;2023-11-22T08:47:20;20.70;54.90
66708;DHT22;53622;0.000;0.000;2023-11-22T08:49:48;20.80;55.40
66708;DHT22;53622;0.000;0.000;2023-11-22T08:52:18;20.90;55.20
66708;DHT22;53622;0.000;0.000;2023-11-22T08:54:48;21.00;55.10
66708;DHT22;53622;0.000;0.000;2023-11-22T08:57:17;21.10;55.50
66708;DHT22;53622;0.000;0.000;2023-11-22T08:59:45;21.20;54.90
66708;DHT22;53622;0.000;0.000;2023-11-22T09:02:13;21.20;54.50
66708;DHT22;53622;0.000;0.000;2023-11-22T09:04:42;21.30;54.20
66708;DHT22;53622;0.000;0.000;2023-11-22T09:07:11;21.40;54.10
66708;DHT22;53622;0.000;0.000;2023-11-22T09:09:43;21.50;53.90
66708;DHT22;53622;0.000;0.000;2023-11-22T09:12:11;21.50;53.80
66708;DHT22;53622;0.000;0.000;2023-11-22T09:14:41;21.60;53.80
66708;DHT22;53622;0.000;0.000;2023-11-22T09:17:10;21.60;53.80
66708;DHT22;53622;0.000;0.000;2023-11-22T09:19:38;21.60;53.70
66708;DHT22;53622;0.000;0.000;2023-11-22T09:22:07;21.70;53.70
66708;DHT22;53622;0.000;0.000;2023-11-22T09:24:36;21.80;53.60
66708;DHT22;53622;0.000;0.000;2023-11-22T09:27:06;21.80;53.50
66708;DHT22;53622;0.000;0.000;2023-11-22T09:29:37;21.90;53.70
66708;DHT22;53622;0.000;0.000;2023-11-22T09:32:06;21.90;53.80
66708;DHT22;53622;0.000;0.000;2023-11-22T09:34:35;21.90;53.80
66708;DHT22;53622;0.000;0.000;2023-11-22T09:37:04;21.90;53.90
66708;DHT22;53622;0.000;0.000;2023-11-22T09:39:32;21.90;54.60
66708;DHT22;53622;0.000;0.000;2023-11-22T09:42:02;21.90;54.00
66708;DHT22;53622;0.000;0.000;2023-11-22T09:44:33;22.00;54.00
66708;DHT22;53622;0.000;0.000;2023-11-22T09:47:04;22.00;53.80
66708;DHT22;53622;0.000;0.000;2023-11-22T09:49:34;22.10;53.80
66708;DHT22;53622;0.000;0.000;2023-11-22T09:52:04;22.10;53.70
66708;DHT22;53622;0.000;0.000;2023-11-22T09:54:35;22.10;53.50
66708;DHT22;53622;0.000;0.000;2023-11-22T09:57:08;22.20;53.60
66708;DHT22;53622;0.000;0.000;2023-11-22T09:59:40;22.20;53.50
66708;DHT22;53622;0.000;0.000;2023-11-22T10:02:09;22.20;53.50
66708;DHT22;53622;0.000;0.000;2023-11-22T10:04:39;22.30;53.50
66708;DHT22;53622;0.000;0.000;2023-11-22T10:07:08;22.30;53.40
66708;DHT22;53622;0.000;0.000;2023-11-22T10:09:38;22.40;53.40
66708;DHT22;53622;0.000;0.000;2023-11-22T10:12:09;22.40;53.40
66708;DHT22;53622;0.000;0.000;2023-11-22T10:14:41;22.40;53.50
66708;DHT22;53622;0.000;0.000;2023-11-22T10:17:10;22.50;53.60
66708;DHT22;53622;0.000;0.000;2023-11-22T10:19:39;22.50;53.60
66708;DHT22;53622;0.000;0.000;2023-11-22T10:22:08;22.50;53.50
66708;DHT22;53622;0.000;0.000;2023-11-22T10:24:37;22.50;53.50
66708;DHT22;53622;0.000;0.000;2023-11-22T10:27:08;22.50;53.60
66708;DHT22;53622;0.000;0.000;2023-11-22T10:29:37;22.50;53.50
66708;DHT22;53622;0.000;0.000;2023-11-22T10:32:08;22.50;53.40
66708;DHT22;53622;0.000;0.000;2023-11-22T10:34:37;22.60;53.30
66708;DHT22;53622;0.000;0.000;2023-11-22T10:37:05;22.60;53.40
66708;DHT22;53622;0.000;0.000;2023-11-22T10:39:37;22.50;53.30
66708;DHT22;53622;0.000;0.000;2023-11-22T10:42:08;22.50;53.30
66708;DHT22;53622;0.000;0.000;2023-11-22T10:44:37;22.50;53.40
66708;DHT22;53622;0.000;0.000;2023-11-22T10:47:09;22.50;54.00
66708;DHT22;53622;0.000;0.000;2023-11-22T10:49:38;22.50;54.10
66708;DHT22;53622;0.000;0.000;2023-11-22T10:52:08;22.50;54.00
66708;DHT22;53622;0.000;0.000;2023-11-22T10:54:46;22.50;53.70
66708;DHT22;53622;0.000;0.000;2023-11-22T10:57:19;22.50;53.60
66708;DHT22;53622;0.000;0.000;2023-11-22T10:59:54;22.50;53.50
66708;DHT22;53622;0.000;0.000;2023-11-22T11:02:25;22.50;53.40
66708;DHT22;53622;0.000;0.000;2023-11-22T11:04:59;22.40;53.60
66708;DHT22;53622;0.000;0.000;2023-11-22T11:07:30;22.40;53.90
66708;DHT22;53622;0.000;0.000;2023-11-22T11:10:02;22.50;53.80
66708;DHT22;53622;0.000;0.000;2023-11-22T11:12:44;22.50;54.00
66708;DHT22;53622;0.000;0.000;2023-11-22T11:15:14;22.50;53.60
66708;DHT22;53622;0.000;0.000;2023-11-22T11:17:46;22.50;54.30
66708;DHT22;53622;0.000;0.000;2023-11-22T11:20:18;22.50;54.30
66708;DHT22;53622;0.000;0.000;2023-11-22T11:22:47;22.50;54.50
66708;DHT22;53622;0.000;0.000;2023-11-22T11:25:16;22.50;54.70
66708;DHT22;53622;0.000;0.000;2023-11-22T11:27:55;22.50;54.50
66708;DHT22;53622;0.000;0.000;2023-11-22T11:30:41;22.50;54.70
66708;DHT22;53622;0.000;0.000;2023-11-22T11:33:13;22.50;54.70
66708;DHT22;53622;0.000;0.000;2023-11-22T11:35:47;22.40;54.80
66708;DHT22;53622;0.000;0.000;2023-11-22T11:38:19;22.50;55.20
66708;DHT22;53622;0.000;0.000;2023-11-22T11:40:49;22.50;55.00
66708;DHT22;53622;0.000;0.000;2023-11-22T11:43:21;22.50;55.30
66708;DHT22;53622;0.000;0.000;2023-11-22T11:45:50;22.40;55.50
66708;DHT22;53622;0.000;0.000;2023-11-22T11:48:21;22.40;54.80
66708;DHT22;53622;0.000;0.000;2023-11-22T11:50:52;22.40;55.10
66708;DHT22;53622;0.000;0.000;2023-11-22T11:53:21;22.40;55.20
66708;DHT22;53622;0.000;0.000;2023-11-22T11:55:50;22.40;54.80
66708;DHT22;53622;0.000;0.000;2023-11-22T11:58:20;22.50;54.60
66708;DHT22;53622;0.000;0.000;2023-11-22T12:00:51;22.60;54.50
66708;DHT22;53622;0.000;0.000;2023-11-22T12:03:23;22.60;54.40
66708;DHT22;53622;0.000;0.000;2023-11-22T12:05:52;22.70;54.40
66708;DHT22;53622;0.000;0.000;2023-11-22T12:08:20;22.70;54.30
66708;DHT22;53622;0.000;0.000;2023-11-22T12:10:49;22.70;54.20
66708;DHT22;53622;0.000;0.000;2023-11-22T12:13:19;22.80;54.20
66708;DHT22;53622;0.000;0.000;2023-11-22T12:15:48;22.80;54.10
66708;DHT22;53622;0.000;0.000;2023-11-22T12:18:18;22.80;54.00
66708;DHT22;53622;0.000;0.000;2023-11-22T12:20:55;22.90;54.00
66708;DHT22;53622;0.000;0.000;2023-11-22T12:23:27;22.90;54.50
66708;DHT22;53622;0.000;0.000;2023-11-22T12:25:57;22.90;53.80
66708;DHT22;53622;0.000;0.000;2023-11-22T12:28:27;22.90;53.80
66708;DHT22;53622;0.000;0.000;2023-11-22T12:31:06;23.00;53.80
66708;DHT22;53622;0.000;0.000;2023-11-22T12:33:37;23.00;53.80
66708;DHT22;53622;0.000;0.000;2023-11-22T12:36:09;23.00;53.70
66708;DHT22;53622;0.000;0.000;2023-11-22T12:38:40;23.00;53.60
66708;DHT22;53622;0.000;0.000;2023-11-22T12:41:09;23.00;53.50
66708;DHT22;53622;0.000;0.000;2023-11-22T12:43:37;23.00;53.60
66708;DHT22;53622;0.000;0.000;2023-11-22T12:46:17;23.00;53.70
66708;DHT22;53622;0.000;0.000;2023-11-22T12:48:45;23.00;54.30
66708;DHT22;53622;0.000;0.000;2023-11-22T12:51:16;22.90;54.70
66708;DHT22;53622;0.000;0.000;2023-11-22T12:53:49;22.90;54.60
66708;DHT22;53622;0.000;0.000;2023-11-22T12:56:18;22.80;55.00
66708;DHT22;53622;0.000;0.000;2023-11-22T12:58:47;22.80;55.10
66708;DHT22;53622;0.000;0.000;2023-11-22T13:01:16;22.80;55.10
66708;DHT22;53622;0.000;0.000;2023-11-22T13:03:45;22.80;55.10
66708;DHT22;53622;0.000;0.000;2023-11-22T13:06:14;22.70;55.30
66708;DHT22;53622;0.000;0.000;2023-11-22T13:08:46;22.70;55.20
66708;DHT22;53622;0.000;0.000;2023-11-22T13:11:15;22.70;54.40
66708;DHT22;53622;0.000;0.000;2023-11-22T13:13:43;22.70;54.20
66708;DHT22;53622;0.000;0.000;2023-11-22T13:16:14;22.70;54.50
66708;DHT22;53622;0.000;0.000;2023-11-22T13:18:43;22.70;54.70
66708;DHT22;53622;0.000;0.000;2023-11-22T13:21:12;22.70;55.10
66708;DHT22;53622;0.000;0.000;2023-11-22T13:23:41;22.60;54.40
66708;DHT22;53622;0.000;0.000;2023-11-22T13:26:11;22.60;53.90
66708;DHT22;53622;0.000;0.000;2023-11-22T13:28:41;22.60;53.90
66708;DHT22;53622;0.000;0.000;2023-11-22T13:31:10;22.60;54.50
66708;DHT22;53622;0.000;0.000;2023-11-22T13:33:39;22.70;54.40
66708;DHT22;53622;0.000;0.000;2023-11-22T13:36:11;22.70;53.90
66708;DHT22;53622;0.000;0.000;2023-11-22T13:38:41;22.70;53.70
66708;DHT22;53622;0.000;0.000;2023-11-22T13:41:11;22.80;53.60
66708;DHT22;53622;0.000;0.000;2023-11-22T13:43:40;22.80;53.50
66708;DHT22;53622;0.000;0.000;2023-11-22T13:46:09;22.90;53.30
66708;DHT22;53622;0.000;0.000;2023-11-22T13:48:39;23.00;53.30
66708;DHT22;53622;0.000;0.000;2023-11-22T13:51:08;23.00;53.20
66708;DHT22;53622;0.000;0.000;2023-11-22T13:53:38;23.00;53.20
66708;DHT22;53622;0.000;0.000;2023-11-22T13:56:12;23.00;53.10
66708;DHT22;53622;0.000;0.000;2023-11-22T13:58:44;23.10;53.20
66708;DHT22;53622;0.000;0.000;2023-11-22T14:01:13;23.10;53.10
66708;DHT22;53622;0.000;0.000;2023-11-22T14:03:49;23.10;53.10
66708;DHT22;53622;0.000;0.000;2023-11-22T14:06:19;23.10;53.10
66708;DHT22;53622;0.000;0.000;2023-11-22T14:08:48;23.10;53.00
66708;DHT22;53622;0.000;0.000;2023-11-22T14:11:18;23.10;53.20
66708;DHT22;53622;0.000;0.000;2023-11-22T14:13:47;23.20;53.20
66708;DHT22;53622;0.000;0.000;2023-11-22T14:16:15;23.20;53.00
66708;DHT22;53622;0.000;0.000;2023-11-22T14:18:44;23.20;53.00
66708;DHT22;53622;0.000;0.000;2023-11-22T14:21:13;23.20;52.90
66708;DHT22;53622;0.000;0.000;2023-11-22T14:23:43;23.20;52.90
66708;DHT22;53622;0.000;0.000;2023-11-22T14:26:12;23.20;52.90
66708;DHT22;53622;0.000;0.000;2023-11-22T14:28:42;23.20;52.90
66708;DHT22;53622;0.000;0.000;2023-11-22T14:31:11;23.20;52.80
66708;DHT22;53622;0.000;0.000;2023-11-22T14:33:41;23.30;52.90
66708;DHT22;53622;0.000;0.000;2023-11-22T14:36:10;23.30;52.80
66708;DHT22;53622;0.000;0.000;2023-11-22T14:38:41;23.20;52.90
66708;DHT22;53622;0.000;0.000;2023-11-22T14:41:10;23.30;52.90
66708;DHT22;53622;0.000;0.000;2023-11-22T14:43:41;23.30;52.80
66708;DHT22;53622;0.000;0.000;2023-11-22T14:46:10;23.30;52.80
66708;DHT22;53622;0.000;0.000;2023-11-22T14:48:38;23.30;53.00
66708;DHT22;53622;0.000;0.000;2023-11-22T14:51:07;23.30;53.00
66708;DHT22;53622;0.000;0.000;2023-11-22T14:53:36;23.30;53.10
66708;DHT22;53622;0.000;0.000;2023-11-22T14:56:07;23.30;53.10
66708;DHT22;53622;0.000;0.000;2023-11-22T14:58:37;23.30;53.30
66708;DHT22;53622;0.000;0.000;2023-11-22T15:01:08;23.30;53.20
66708;DHT22;53622;0.000;0.000;2023-11-22T15:03:37;23.20;53.40
66708;DHT22;53622;0.000;0.000;2023-11-22T15:06:06;23.20;53.40
66708;DHT22;53622;0.000;0.000;2023-11-22T15:08:35;23.20;53.50
66708;DHT22;53622;0.000;0.000;2023-11-22T15:11:04;23.20;52.90
66708;DHT22;53622;0.000;0.000;2023-11-22T15:13:38;23.20;53.10
66708;DHT22;53622;0.000;0.000;2023-11-22T15:16:08;23.20;53.50
66708;DHT22;53622;0.000;0.000;2023-11-22T15:18:40;23.20;53.40
66708;DHT22;53622;0.000;0.000;2023-11-22T15:21:08;23.20;53.50
66708;DHT22;53622;0.000;0.000;2023-11-22T15:23:37;23.20;53.50
66708;DHT22;53622;0.000;0.000;2023-11-22T15:26:06;23.20;53.40
66708;DHT22;53622;0.000;0.000;2023-11-22T15:28:36;23.20;53.50
66708;DHT22;53622;0.000;0.000;2023-11-22T15:31:04;23.20;53.60
66708;DHT22;53622;0.000;0.000;2023-11-22T15:33:36;23.10;53.60
66708;DHT22;53622;0.000;0.000;2023-11-22T15:36:06;23.20;53.60
66708;DHT22;53622;0.000;0.000;2023-11-22T15:38:35;23.10;53.60
66708;DHT22;53622;0.000;0.000;2023-11-22T15:41:04;23.10;53.50
66708;DHT22;53622;0.000;0.000;2023-11-22T15:43:42;23.20;52.90
66708;DHT22;53622;0.000;0.000;2023-11-22T15:46:11;23.20;53.20
66708;DHT22;53622;0.000;0.000;2023-11-22T15:48:43;23.10;52.70
66708;DHT22;53622;0.000;0.000;2023-11-22T15:51:12;23.20;52.90
66708;DHT22;53622;0.000;0.000;2023-11-22T15:53:44;23.20;52.80
66708;DHT22;53622;0.000;0.000;2023-11-22T15:56:13;23.20;52.80
66708;DHT22;53622;0.000;0.000;2023-11-22T15:58:43;23.20;52.60
66708;DHT22;53622;0.000;0.000;2023-11-22T16:01:13;23.30;52.50